createdAt,value
2023-05-22T00:00:02.565Z,12.03
2023-05-22T00:01:07.387Z,12.03
2023-05-22T00:02:10.224Z,12.02
2023-05-22T00:03:14.933Z,11.99
2023-05-22T00:04:21.772Z,11.96
2023-05-22T00:05:26.898Z,11.96
2023-05-22T00:06:29.009Z,11.95
2023-05-22T00:07:33.752Z,11.93
2023-05-22T00:08:36.362Z,11.93
2023-05-22T00:09:41.034Z,11.92
2023-05-22T00:10:44.322Z,11.92
2023-05-22T00:11:49.051Z,11.91
2023-05-22T00:12:51.277Z,11.92
2023-05-22T00:13:56.267Z,11.89
2023-05-22T00:14:58.432Z,11.86
2023-05-22T00:16:06.303Z,11.88
2023-05-22T00:17:10.489Z,11.88
2023-05-22T00:18:15.719Z,11.86
2023-05-22T00:19:18.511Z,11.85
2023-05-22T00:20:23.744Z,11.84
2023-05-22T00:21:28.011Z,11.82
2023-05-22T00:22:35.750Z,11.82
2023-05-22T00:23:37.994Z,11.82
2023-05-22T00:24:42.655Z,11.79
2023-05-22T00:25:44.778Z,11.75
2023-05-22T00:26:49.475Z,11.72
2023-05-22T00:27:51.578Z,11.70
2023-05-22T00:28:56.294Z,11.66
2023-05-22T00:29:59.202Z,11.62
2023-05-22T00:31:06.899Z,11.60
2023-05-22T00:32:09.075Z,11.56
2023-05-22T00:33:13.834Z,11.53
2023-05-22T00:34:16.270Z,11.51
2023-05-22T00:35:22.044Z,11.51
2023-05-22T00:36:24.128Z,11.53
2023-05-22T00:37:28.981Z,11.50
2023-05-22T00:38:33.057Z,11.50
2023-05-22T00:39:37.716Z,11.47
2023-05-22T00:40:40.003Z,11.44
2023-05-22T00:41:44.958Z,11.40
2023-05-22T00:42:47.234Z,11.36
2023-05-22T00:43:51.963Z,11.34
2023-05-22T00:44:54.126Z,11.29
2023-05-22T00:45:59.227Z,11.29
2023-05-22T00:47:04.098Z,11.23
2023-05-22T00:48:09.851Z,11.21
2023-05-22T00:49:14.515Z,11.16
2023-05-22T00:50:18.302Z,11.16
2023-05-22T00:51:24.171Z,11.15
2023-05-22T00:52:26.360Z,11.12
2023-05-22T00:53:33.321Z,11.13
2023-05-22T00:54:35.522Z,11.16
2023-05-22T00:55:40.571Z,11.16
2023-05-22T00:56:43.544Z,11.14
2023-05-22T00:57:48.685Z,11.12
2023-05-22T00:58:51.158Z,11.09
2023-05-22T00:59:56.098Z,11.07
2023-05-22T01:00:58.213Z,11.05
2023-05-22T01:02:03.251Z,11.02
2023-05-22T01:03:09.992Z,11.00
2023-05-22T01:04:15.889Z,10.98
2023-05-22T01:05:18.466Z,10.96
2023-05-22T01:06:23.530Z,10.94
2023-05-22T01:07:25.755Z,10.94
2023-05-22T01:08:30.418Z,10.91
2023-05-22T01:09:32.504Z,10.92
2023-05-22T01:10:38.970Z,10.91
2023-05-22T01:11:52.255Z,10.89
2023-05-22T01:13:05.321Z,10.89
2023-05-22T01:14:18.304Z,10.86
2023-05-22T01:15:32.734Z,10.85
2023-05-22T01:16:48.586Z,10.80
2023-05-22T01:17:58.945Z,10.77
2023-05-22T01:19:16.366Z,10.75
2023-05-22T01:20:27.629Z,10.74
2023-05-22T01:21:37.750Z,10.73
2023-05-22T01:23:18.081Z,10.69
2023-05-22T01:24:55.711Z,10.68
2023-05-22T01:26:14.468Z,10.70
2023-05-22T01:27:49.376Z,10.70
2023-05-22T01:29:20.060Z,10.67
2023-05-22T01:30:50.163Z,10.62
2023-05-22T01:31:54.950Z,10.59
2023-05-22T01:33:01.136Z,10.56
2023-05-22T01:34:05.074Z,10.56
2023-05-22T01:35:13.804Z,10.50
2023-05-22T01:36:22.581Z,10.45
2023-05-22T01:37:27.779Z,10.41
2023-05-22T01:38:33.021Z,10.38
2023-05-22T01:39:38.584Z,10.34
2023-05-22T01:40:41.339Z,10.28
2023-05-22T01:41:46.530Z,10.29
2023-05-22T01:42:48.702Z,10.28
2023-05-22T01:43:53.576Z,10.28
2023-05-22T01:44:55.701Z,10.27
2023-05-22T01:46:04.226Z,10.25
2023-05-22T01:47:08.432Z,10.23
2023-05-22T01:48:13.121Z,10.22
2023-05-22T01:49:15.854Z,10.21
2023-05-22T01:50:21.312Z,10.22
2023-05-22T01:51:32.805Z,10.19
2023-05-22T01:52:49.094Z,10.17
2023-05-22T01:53:57.739Z,10.15
2023-05-22T01:55:09.889Z,10.14
2023-05-22T01:56:16.970Z,10.11
2023-05-22T01:57:25.224Z,10.12
2023-05-22T01:58:34.621Z,10.11
2023-05-22T01:59:45.937Z,10.11
2023-05-22T02:00:51.846Z,10.09
2023-05-22T02:02:01.371Z,10.09
2023-05-22T02:03:09.121Z,10.11
2023-05-22T02:04:16.501Z,10.09
2023-05-22T02:05:22.864Z,10.11
2023-05-22T02:06:29.343Z,10.09
2023-05-22T02:07:33.508Z,10.09
2023-05-22T02:08:41.531Z,10.11
2023-05-22T02:09:46.260Z,10.11
2023-05-22T02:10:52.924Z,10.11
2023-05-22T02:11:55.691Z,10.09
2023-05-22T02:13:00.595Z,10.08
2023-05-22T02:14:03.084Z,10.12
2023-05-22T02:15:10.656Z,10.11
2023-05-22T02:16:12.995Z,10.09
2023-05-22T02:17:20.580Z,10.09
2023-05-22T02:18:29.713Z,10.09
2023-05-22T02:19:36.897Z,10.09
2023-05-22T02:20:39.514Z,10.09
2023-05-22T02:21:44.339Z,10.12
2023-05-22T02:22:47.972Z,10.13
2023-05-22T02:23:52.830Z,10.14
2023-05-22T02:24:54.979Z,10.15
2023-05-22T02:25:59.765Z,10.15
2023-05-22T02:27:01.958Z,10.17
2023-05-22T02:28:06.733Z,10.19
2023-05-22T02:29:09.018Z,10.20
2023-05-22T02:30:14.989Z,10.19
2023-05-22T02:31:18.510Z,10.19
2023-05-22T02:32:25.872Z,10.20
2023-05-22T02:33:30.164Z,10.22
2023-05-22T02:34:35.150Z,10.23
2023-05-22T02:35:37.215Z,10.21
2023-05-22T02:36:41.954Z,10.23
2023-05-22T02:37:44.051Z,10.22
2023-05-22T02:38:48.742Z,10.20
2023-05-22T02:39:50.905Z,10.21
2023-05-22T02:40:55.558Z,10.21
2023-05-22T02:41:57.658Z,10.20
2023-05-22T02:43:02.358Z,10.19
2023-05-22T02:44:04.804Z,10.17
2023-05-22T02:45:11.250Z,10.16
2023-05-22T02:46:13.408Z,10.15
2023-05-22T02:47:18.318Z,10.14
2023-05-22T02:48:23.053Z,10.11
2023-05-22T02:49:27.722Z,10.10
2023-05-22T02:50:29.903Z,10.08
2023-05-22T02:51:34.605Z,10.09
2023-05-22T02:52:37.354Z,10.11
2023-05-22T02:53:43.147Z,10.09
2023-05-22T02:54:45.316Z,10.09
2023-05-22T02:55:50.256Z,10.06
2023-05-22T02:56:52.309Z,10.06
2023-05-22T02:57:57.029Z,10.07
2023-05-22T02:58:59.149Z,10.04
2023-05-22T03:00:03.915Z,10.03
2023-05-22T03:01:06.943Z,10.02
2023-05-22T03:02:12.422Z,10.02
2023-05-22T03:03:14.643Z,10.03
2023-05-22T03:04:22.872Z,10.01
2023-05-22T03:05:25.073Z,10.02
2023-05-22T03:06:29.806Z,10.03
2023-05-22T03:07:32.091Z,10.03
2023-05-22T03:08:41.736Z,10.01
2023-05-22T03:09:43.837Z,10.01
2023-05-22T03:10:48.625Z,9.98
2023-05-22T03:11:50.829Z,9.97
2023-05-22T03:12:55.562Z,9.96
2023-05-22T03:13:57.687Z,9.95
2023-05-22T03:15:02.415Z,9.93
2023-05-22T03:16:05.355Z,9.90
2023-05-22T03:17:10.027Z,9.92
2023-05-22T03:18:12.152Z,9.88
2023-05-22T03:19:18.409Z,9.86
2023-05-22T03:20:25.898Z,9.86
2023-05-22T03:21:27.981Z,9.83
2023-05-22T03:22:32.695Z,9.84
2023-05-22T03:23:34.750Z,9.82
2023-05-22T03:24:39.434Z,9.81
2023-05-22T03:25:41.544Z,9.79
2023-05-22T03:26:46.754Z,9.78
2023-05-22T03:27:48.893Z,9.77
2023-05-22T03:28:53.577Z,9.75
2023-05-22T03:29:55.710Z,9.76
2023-05-22T03:31:00.385Z,9.76
2023-05-22T03:32:04.072Z,9.75
2023-05-22T03:33:08.898Z,9.75
2023-05-22T03:34:11.249Z,9.75
2023-05-22T03:35:19.744Z,9.72
2023-05-22T03:36:27.118Z,9.70
2023-05-22T03:37:29.284Z,9.70
2023-05-22T03:38:33.957Z,9.68
2023-05-22T03:39:36.177Z,9.65
2023-05-22T03:40:41.159Z,9.64
2023-05-22T03:41:43.474Z,9.63
2023-05-22T03:42:49.575Z,9.62
2023-05-22T03:43:51.667Z,9.63
2023-05-22T03:44:56.328Z,9.63
2023-05-22T03:45:59.523Z,9.67
2023-05-22T03:47:04.283Z,9.67
2023-05-22T03:48:06.625Z,9.69
2023-05-22T03:49:11.507Z,9.71
2023-05-22T03:50:13.691Z,9.74
2023-05-22T03:51:20.214Z,9.78
2023-05-22T03:52:25.954Z,9.81
2023-05-22T03:53:30.629Z,9.81
2023-05-22T03:54:32.712Z,9.88
2023-05-22T03:55:37.347Z,9.91
2023-05-22T03:56:39.678Z,9.95
2023-05-22T03:57:44.387Z,10.00
2023-05-22T03:58:46.492Z,10.06
2023-05-22T03:59:51.167Z,10.11
2023-05-22T04:00:54.318Z,10.14
2023-05-22T04:02:01.441Z,10.18
2023-05-22T04:03:03.934Z,10.22
2023-05-22T04:04:09.758Z,10.26
2023-05-22T04:05:12.208Z,10.31
2023-05-22T04:06:17.849Z,10.35
2023-05-22T04:07:20.543Z,10.38
2023-05-22T04:08:27.812Z,10.42
2023-05-22T04:09:32.194Z,10.46
2023-05-22T04:10:38.897Z,10.50
2023-05-22T04:11:42.566Z,10.56
2023-05-22T04:12:47.298Z,10.59
2023-05-22T04:13:51.207Z,10.63
2023-05-22T04:14:55.871Z,10.69
2023-05-22T04:15:58.127Z,10.73
2023-05-22T04:17:03.004Z,10.78
2023-05-22T04:18:05.351Z,10.83
2023-05-22T04:19:10.171Z,10.88
2023-05-22T04:20:13.423Z,10.94
2023-05-22T04:21:19.365Z,10.98
2023-05-22T04:22:22.922Z,11.03
2023-05-22T04:23:30.251Z,11.08
2023-05-22T04:24:32.414Z,11.13
2023-05-22T04:25:37.228Z,11.18
2023-05-22T04:26:42.302Z,11.22
2023-05-22T04:27:48.180Z,11.28
2023-05-22T04:28:50.275Z,11.33
2023-05-22T04:29:55.288Z,11.37
2023-05-22T04:31:00.382Z,11.42
2023-05-22T04:32:02.613Z,11.48
2023-05-22T04:33:08.664Z,11.53
2023-05-22T04:34:12.999Z,11.61
2023-05-22T04:35:19.707Z,11.67
2023-05-22T04:36:26.328Z,11.74
2023-05-22T04:37:28.995Z,11.80
2023-05-22T04:38:37.327Z,11.90
2023-05-22T04:39:40.617Z,11.94
2023-05-22T04:40:45.339Z,12.02
2023-05-22T04:41:47.468Z,12.08
2023-05-22T04:42:54.487Z,12.15
2023-05-22T04:43:56.707Z,12.27
2023-05-22T04:45:01.892Z,12.37
2023-05-22T04:46:04.091Z,12.45
2023-05-22T04:47:11.662Z,12.52
2023-05-22T04:48:13.915Z,12.59
2023-05-22T04:49:18.666Z,12.65
2023-05-22T04:50:21.121Z,12.73
2023-05-22T04:51:26.013Z,12.80
2023-05-22T04:52:28.398Z,12.84
2023-05-22T04:53:33.775Z,12.92
2023-05-22T04:54:39.066Z,12.98
2023-05-22T04:55:43.795Z,13.05
2023-05-22T04:56:45.907Z,13.10
2023-05-22T04:57:50.630Z,13.21
2023-05-22T04:58:54.067Z,13.26
2023-05-22T04:59:58.949Z,13.32
2023-05-22T05:01:01.625Z,13.38
2023-05-22T05:02:06.616Z,13.44
2023-05-22T05:03:11.999Z,13.49
2023-05-22T05:04:14.224Z,13.56
2023-05-22T05:05:19.249Z,13.68
2023-05-22T05:06:24.750Z,13.77
2023-05-22T05:07:28.244Z,13.77
2023-05-22T05:08:33.017Z,13.78
2023-05-22T05:09:37.701Z,13.81
2023-05-22T05:10:42.380Z,13.88
2023-05-22T05:11:44.503Z,13.89
2023-05-22T05:12:49.235Z,13.89
2023-05-22T05:13:51.400Z,13.88
2023-05-22T05:14:56.230Z,13.88
2023-05-22T05:16:02.720Z,13.95
2023-05-22T05:17:05.288Z,13.97
2023-05-22T05:18:10.087Z,13.94
2023-05-22T05:19:12.802Z,13.93
2023-05-22T05:20:17.722Z,13.95
2023-05-22T05:21:20.708Z,13.99
2023-05-22T05:22:25.618Z,14.04
2023-05-22T05:23:30.316Z,14.05
2023-05-22T05:24:32.380Z,14.09
2023-05-22T05:25:39.774Z,14.14
2023-05-22T05:26:44.499Z,14.19
2023-05-22T05:27:46.942Z,14.25
2023-05-22T05:28:51.702Z,14.31
2023-05-22T05:29:56.452Z,14.43
2023-05-22T05:30:58.551Z,14.50
2023-05-22T05:32:04.240Z,14.54
2023-05-22T05:33:06.598Z,14.63
2023-05-22T05:34:11.281Z,14.63
2023-05-22T05:35:16.271Z,14.69
2023-05-22T05:36:21.400Z,14.78
2023-05-22T05:37:23.670Z,14.84
2023-05-22T05:38:28.468Z,14.86
2023-05-22T05:39:30.593Z,14.85
2023-05-22T05:40:35.330Z,14.85
2023-05-22T05:41:40.075Z,14.80
2023-05-22T05:42:44.780Z,14.83
2023-05-22T05:43:46.946Z,14.80
2023-05-22T05:44:51.674Z,14.79
2023-05-22T05:45:53.952Z,14.81
2023-05-22T05:46:58.753Z,14.91
2023-05-22T05:48:01.019Z,14.96
2023-05-22T05:49:11.480Z,14.96
2023-05-22T05:50:15.774Z,14.98
2023-05-22T05:51:21.136Z,14.98
2023-05-22T05:52:24.929Z,14.93
2023-05-22T05:53:31.358Z,14.90
2023-05-22T05:54:33.498Z,15.00
2023-05-22T05:55:38.129Z,14.98
2023-05-22T05:56:45.571Z,14.97
2023-05-22T05:57:47.680Z,14.94
2023-05-22T05:58:52.401Z,14.95
2023-05-22T05:59:54.728Z,14.98
2023-05-22T06:00:59.462Z,15.05
2023-05-22T06:02:01.535Z,15.08
2023-05-22T06:03:06.281Z,15.08
2023-05-22T06:04:09.186Z,15.08
2023-05-22T06:05:15.661Z,15.11
2023-05-22T06:06:17.865Z,15.14
2023-05-22T06:07:22.610Z,15.23
2023-05-22T06:08:24.710Z,15.31
2023-05-22T06:09:29.381Z,15.32
2023-05-22T06:10:34.035Z,15.40
2023-05-22T06:11:36.347Z,15.39
2023-05-22T06:12:43.954Z,15.43
2023-05-22T06:13:46.114Z,15.50
2023-05-22T06:14:50.797Z,15.51
2023-05-22T06:15:55.709Z,15.55
2023-05-22T06:16:58.051Z,15.58
2023-05-22T06:18:03.016Z,15.68
2023-05-22T06:19:07.826Z,15.71
2023-05-22T06:20:10.908Z,15.81
2023-05-22T06:21:16.210Z,15.94
2023-05-22T06:22:18.598Z,15.90
2023-05-22T06:23:23.260Z,15.99
2023-05-22T06:24:25.393Z,15.98
2023-05-22T06:25:30.288Z,16.07
2023-05-22T06:26:32.521Z,16.05
2023-05-22T06:27:37.327Z,16.07
2023-05-22T06:28:42.125Z,16.07
2023-05-22T06:29:46.842Z,16.08
2023-05-22T06:30:51.777Z,16.06
2023-05-22T06:31:54.263Z,16.19
2023-05-22T06:32:59.016Z,16.21
2023-05-22T06:34:04.157Z,16.22
2023-05-22T06:35:07.156Z,16.22
2023-05-22T06:36:11.930Z,16.24
2023-05-22T06:37:14.174Z,16.30
2023-05-22T06:38:18.928Z,16.36
2023-05-22T06:39:22.096Z,16.43
2023-05-22T06:40:26.773Z,16.52
2023-05-22T06:41:32.332Z,16.56
2023-05-22T06:42:34.464Z,16.56
2023-05-22T06:43:39.116Z,16.66
2023-05-22T06:44:46.626Z,16.66
2023-05-22T06:45:48.874Z,16.65
2023-05-22T06:46:53.578Z,16.68
2023-05-22T06:47:55.850Z,16.80
2023-05-22T06:49:00.557Z,16.86
2023-05-22T06:50:02.731Z,16.88
2023-05-22T06:51:08.603Z,16.93
2023-05-22T06:52:14.056Z,16.92
2023-05-22T06:53:16.278Z,16.95
2023-05-22T06:54:21.662Z,17.03
2023-05-22T06:55:23.768Z,17.03
2023-05-22T06:56:28.488Z,17.03
2023-05-22T06:57:30.810Z,17.09
2023-05-22T06:58:35.879Z,17.20
2023-05-22T06:59:37.982Z,17.32
2023-05-22T07:00:45.412Z,17.33
2023-05-22T07:01:47.665Z,17.33
2023-05-22T07:02:52.902Z,17.43
2023-05-22T07:03:56.597Z,17.49
2023-05-22T07:05:01.266Z,17.59
2023-05-22T07:06:06.434Z,17.61
2023-05-22T07:07:09.635Z,17.57
2023-05-22T07:08:14.266Z,17.56
2023-05-22T07:09:17.845Z,17.59
2023-05-22T07:10:22.606Z,17.70
2023-05-22T07:11:24.740Z,17.73
2023-05-22T07:12:30.741Z,17.79
2023-05-22T07:13:32.944Z,17.89
2023-05-22T07:14:37.763Z,17.94
2023-05-22T07:15:46.486Z,18.01
2023-05-22T07:16:48.896Z,17.93
2023-05-22T07:17:53.819Z,17.89
2023-05-22T07:18:56.064Z,17.92
2023-05-22T07:20:00.759Z,17.96
2023-05-22T07:21:05.474Z,18.07
2023-05-22T07:22:10.168Z,18.05
2023-05-22T07:23:15.031Z,18.21
2023-05-22T07:24:17.127Z,18.29
2023-05-22T07:25:22.050Z,18.38
2023-05-22T07:26:27.633Z,18.40
2023-05-22T07:27:33.496Z,18.48
2023-05-22T07:28:35.858Z,18.52
2023-05-22T07:29:41.187Z,18.42
2023-05-22T07:30:48.583Z,18.53
2023-05-22T07:31:53.288Z,18.60
2023-05-22T07:32:58.062Z,18.70
2023-05-22T07:34:03.131Z,18.80
2023-05-22T07:35:10.845Z,18.83
2023-05-22T07:36:12.977Z,18.86
2023-05-22T07:37:18.664Z,18.93
2023-05-22T07:38:21.273Z,19.08
2023-05-22T07:39:26.045Z,19.08
2023-05-22T07:40:30.727Z,19.08
2023-05-22T07:41:33.030Z,18.99
2023-05-22T07:42:38.428Z,19.09
2023-05-22T07:43:43.081Z,19.21
2023-05-22T07:44:45.329Z,19.30
2023-05-22T07:45:54.398Z,19.46
2023-05-22T07:46:59.743Z,19.60
2023-05-22T07:48:03.752Z,19.70
2023-05-22T07:49:09.112Z,19.77
2023-05-22T07:50:14.157Z,19.85
2023-05-22T07:51:16.448Z,19.99
2023-05-22T07:52:21.920Z,19.98
2023-05-22T07:53:26.617Z,20.05
2023-05-22T07:54:28.760Z,20.07
2023-05-22T07:55:33.626Z,20.13
2023-05-22T07:56:39.756Z,20.18
2023-05-22T07:57:44.660Z,20.30
2023-05-22T07:58:50.196Z,20.32
2023-05-22T07:59:55.012Z,20.42
2023-05-22T08:00:59.851Z,20.53
2023-05-22T08:02:05.153Z,20.63
2023-05-22T08:03:07.486Z,20.57
2023-05-22T08:04:12.648Z,20.67
2023-05-22T08:05:17.523Z,20.57
2023-05-22T08:06:19.933Z,20.27
2023-05-22T08:07:24.660Z,20.28
2023-05-22T08:08:26.962Z,20.35
2023-05-22T08:09:31.964Z,20.35
2023-05-22T08:10:52.250Z,20.43
2023-05-22T08:11:58.948Z,20.53
2023-05-22T08:13:06.456Z,20.51
2023-05-22T08:14:11.500Z,20.58
2023-05-22T08:15:16.648Z,20.75
2023-05-22T08:16:24.031Z,20.89
2023-05-22T08:17:26.175Z,20.91
2023-05-22T08:18:30.943Z,20.94
2023-05-22T08:19:33.478Z,20.93
2023-05-22T08:20:38.990Z,21.01
2023-05-22T08:21:43.927Z,21.13
2023-05-22T08:22:46.473Z,21.14
2023-05-22T08:23:51.196Z,21.19
2023-05-22T08:24:53.314Z,21.18
2023-05-22T08:25:58.227Z,21.26
2023-05-22T08:27:00.880Z,21.36
2023-05-22T08:28:06.575Z,21.49
2023-05-22T08:29:11.821Z,21.56
2023-05-22T08:30:16.836Z,21.44
2023-05-22T08:31:21.629Z,21.40
2023-05-22T08:32:26.998Z,21.52
2023-05-22T08:33:32.839Z,21.40
2023-05-22T08:34:37.551Z,21.42
2023-05-22T08:35:42.463Z,21.40
2023-05-22T08:36:44.710Z,21.51
2023-05-22T08:37:49.449Z,21.59
2023-05-22T08:38:54.259Z,21.72
2023-05-22T08:39:56.384Z,21.81
2023-05-22T08:41:01.412Z,21.75
2023-05-22T08:42:06.635Z,21.70
2023-05-22T08:43:09.769Z,21.78
2023-05-22T08:44:14.844Z,21.65
2023-05-22T08:45:20.094Z,21.66
2023-05-22T08:46:29.498Z,21.65
2023-05-22T08:47:34.259Z,21.88
2023-05-22T08:48:42.203Z,22.01
2023-05-22T08:49:50.895Z,21.99
2023-05-22T08:50:57.614Z,21.82
2023-05-22T08:52:08.616Z,21.80
2023-05-22T08:53:16.022Z,21.84
2023-05-22T08:54:24.485Z,21.97
2023-05-22T08:55:29.641Z,22.12
2023-05-22T08:56:37.336Z,22.29
2023-05-22T08:57:45.905Z,22.43
2023-05-22T08:58:52.903Z,22.50
2023-05-22T08:59:57.585Z,22.41
2023-05-22T09:01:02.544Z,22.49
2023-05-22T09:02:10.499Z,22.62
2023-05-22T09:03:14.213Z,22.50
2023-05-22T09:04:19.143Z,22.49
2023-05-22T09:05:26.874Z,22.72
2023-05-22T09:06:32.085Z,22.81
2023-05-22T09:07:38.222Z,22.98
2023-05-22T09:08:43.565Z,23.13
2023-05-22T09:09:48.246Z,23.05
2023-05-22T09:10:50.391Z,23.16
2023-05-22T09:11:57.696Z,23.18
2023-05-22T09:13:04.560Z,23.38
2023-05-22T09:14:12.764Z,23.59
2023-05-22T09:15:20.585Z,23.77
2023-05-22T09:16:25.300Z,23.96
2023-05-22T09:17:32.631Z,23.81
2023-05-22T09:18:34.824Z,23.63
2023-05-22T09:19:39.771Z,23.75
2023-05-22T09:20:44.518Z,23.93
2023-05-22T09:21:49.390Z,23.88
2023-05-22T09:22:51.488Z,24.09
2023-05-22T09:23:56.229Z,23.88
2023-05-22T09:25:01.235Z,24.20
2023-05-22T09:26:04.382Z,24.38
2023-05-22T09:27:10.601Z,24.40
2023-05-22T09:28:13.030Z,24.27
2023-05-22T09:29:17.755Z,24.34
2023-05-22T09:30:22.778Z,24.37
2023-05-22T09:31:27.766Z,24.77
2023-05-22T09:32:35.154Z,24.76
2023-05-22T09:33:40.141Z,25.07
2023-05-22T09:34:43.140Z,25.38
2023-05-22T09:35:49.897Z,25.23
2023-05-22T09:36:56.888Z,24.76
2023-05-22T09:37:59.474Z,25.24
2023-05-22T09:39:04.818Z,25.43
2023-05-22T09:40:11.229Z,25.57
2023-05-22T09:41:16.095Z,25.55
2023-05-22T09:42:18.729Z,25.51
2023-05-22T09:43:25.648Z,25.81
2023-05-22T09:44:27.906Z,26.08
2023-05-22T09:45:32.670Z,25.71
2023-05-22T09:46:42.014Z,25.85
2023-05-22T09:47:52.033Z,25.94
2023-05-22T09:48:57.216Z,25.79
2023-05-22T09:50:02.081Z,25.88
2023-05-22T09:51:08.700Z,25.86
2023-05-22T09:52:12.751Z,25.58
2023-05-22T09:53:20.672Z,25.38
2023-05-22T09:54:25.949Z,25.47
2023-05-22T09:55:31.958Z,25.54
2023-05-22T09:56:39.575Z,25.59
2023-05-22T09:57:48.494Z,26.02
2023-05-22T09:58:52.799Z,26.26
2023-05-22T09:59:58.680Z,26.42
2023-05-22T10:01:04.977Z,26.39
2023-05-22T10:02:10.946Z,26.11
2023-05-22T10:03:17.562Z,26.58
2023-05-22T10:04:25.008Z,26.71
2023-05-22T10:05:34.289Z,26.73
2023-05-22T10:06:38.010Z,26.56
2023-05-22T10:07:49.961Z,26.83
2023-05-22T10:08:59.209Z,26.92
2023-05-22T10:10:10.328Z,27.08
2023-05-22T10:11:15.507Z,27.78
2023-05-22T10:12:21.728Z,27.62
2023-05-22T10:13:28.141Z,27.91
2023-05-22T10:14:31.081Z,28.01
2023-05-22T10:15:35.931Z,28.03
2023-05-22T10:16:38.581Z,28.32
2023-05-22T10:17:44.383Z,27.93
2023-05-22T10:18:52.778Z,27.53
2023-05-22T10:19:59.475Z,27.93
2023-05-22T10:21:02.851Z,27.53
2023-05-22T10:22:09.107Z,27.78
2023-05-22T10:23:11.505Z,28.20
2023-05-22T10:24:16.842Z,27.90
2023-05-22T10:25:19.158Z,28.18
2023-05-22T10:26:25.239Z,28.46
2023-05-22T10:27:30.150Z,28.97
2023-05-22T10:28:39.623Z,28.73
2023-05-22T10:29:50.400Z,29.17
2023-05-22T10:31:03.285Z,28.45
2023-05-22T10:32:23.581Z,28.37
2023-05-22T10:33:32.662Z,28.30
2023-05-22T10:34:43.920Z,28.90
2023-05-22T10:35:54.060Z,29.43
2023-05-22T10:37:17.250Z,29.65
2023-05-22T10:38:54.303Z,30.08
2023-05-22T10:40:05.350Z,30.60
2023-05-22T10:41:10.947Z,28.99
2023-05-22T10:42:13.956Z,28.76
2023-05-22T10:43:18.858Z,28.34
2023-05-22T10:44:22.589Z,27.88
2023-05-22T10:45:29.744Z,28.16
2023-05-22T10:46:33.580Z,28.41
2023-05-22T10:47:38.988Z,27.81
2023-05-22T10:48:48.136Z,27.47
2023-05-22T10:50:06.806Z,27.86
2023-05-22T10:51:11.624Z,27.63
2023-05-22T10:52:18.840Z,27.36
2023-05-22T10:53:28.299Z,27.42
2023-05-22T10:54:43.968Z,27.46
2023-05-22T10:55:49.687Z,28.21
2023-05-22T10:56:54.463Z,29.04
2023-05-22T10:57:59.213Z,28.17
2023-05-22T10:59:07.828Z,28.39
2023-05-22T11:00:15.331Z,28.45
2023-05-22T11:01:19.821Z,29.13
2023-05-22T11:02:29.709Z,28.64
2023-05-22T11:03:54.360Z,27.70
2023-05-22T11:05:29.313Z,27.45
2023-05-22T11:06:42.479Z,27.32
2023-05-22T11:07:45.219Z,27.39
2023-05-22T11:08:51.721Z,27.95
2023-05-22T11:10:03.705Z,28.59
2023-05-22T11:11:13.864Z,28.01
2023-05-22T11:12:22.910Z,28.50
2023-05-22T11:13:29.500Z,28.83
2023-05-22T11:14:34.639Z,28.49
2023-05-22T11:15:39.309Z,27.95
2023-05-22T11:16:41.551Z,28.65
2023-05-22T11:17:51.894Z,28.16
2023-05-22T11:19:18.603Z,28.14
2023-05-22T11:20:31.314Z,27.95
2023-05-22T11:21:36.116Z,28.53
2023-05-22T11:22:43.991Z,28.76
2023-05-22T11:23:48.860Z,28.58
2023-05-22T11:24:53.702Z,27.86
2023-05-22T11:25:58.440Z,28.28
2023-05-22T11:27:08.912Z,28.51
2023-05-22T11:28:14.701Z,29.16
2023-05-22T11:29:19.617Z,29.51
2023-05-22T11:30:30.662Z,29.74
2023-05-22T11:31:36.982Z,29.98
2023-05-22T11:32:44.669Z,30.72
2023-05-22T11:33:48.110Z,30.97
2023-05-22T11:34:53.219Z,30.18
2023-05-22T11:36:02.175Z,30.58
2023-05-22T11:37:06.019Z,29.91
2023-05-22T11:38:11.754Z,29.42
2023-05-22T11:39:18.234Z,29.36
2023-05-22T11:40:25.920Z,29.96
2023-05-22T11:41:36.050Z,30.57
2023-05-22T11:42:40.812Z,30.73
2023-05-22T11:43:45.999Z,29.70
2023-05-22T11:44:48.225Z,29.25
2023-05-22T11:45:52.990Z,29.35
2023-05-22T11:46:57.745Z,29.49
2023-05-22T11:48:00.060Z,30.42
2023-05-22T11:49:05.460Z,31.23
2023-05-22T11:50:13.537Z,31.69
2023-05-22T11:51:22.195Z,30.85
2023-05-22T11:52:24.731Z,31.64
2023-05-22T11:53:29.511Z,31.39
2023-05-22T11:54:32.688Z,31.70
2023-05-22T11:55:37.377Z,30.70
2023-05-22T11:56:42.017Z,30.47
2023-05-22T11:57:44.609Z,30.96
2023-05-22T11:58:52.052Z,30.66
2023-05-22T11:59:54.533Z,31.06
2023-05-22T12:01:04.001Z,31.56
2023-05-22T12:02:10.084Z,32.39
2023-05-22T12:03:12.290Z,33.04
2023-05-22T12:04:17.110Z,33.26
2023-05-22T12:05:24.156Z,31.88
2023-05-22T12:06:33.594Z,32.31
2023-05-22T12:07:38.600Z,33.23
2023-05-22T12:08:43.758Z,33.49
2023-05-22T12:09:49.252Z,34.06
2023-05-22T12:10:51.853Z,34.71
2023-05-22T12:11:58.146Z,34.68
2023-05-22T12:13:02.880Z,33.00
2023-05-22T12:14:07.838Z,32.52
2023-05-22T12:15:13.500Z,32.37
2023-05-22T12:16:19.613Z,32.98
2023-05-22T12:17:25.765Z,33.92
2023-05-22T12:18:28.144Z,35.03
2023-05-22T12:19:33.290Z,35.10
2023-05-22T12:20:35.516Z,33.74
2023-05-22T12:21:43.986Z,33.90
2023-05-22T12:22:48.718Z,34.05
2023-05-22T12:23:51.742Z,33.43
2023-05-22T12:24:56.422Z,34.02
2023-05-22T12:26:07.027Z,34.62
2023-05-22T12:27:10.506Z,35.36
2023-05-22T12:28:15.361Z,35.92
2023-05-22T12:29:18.909Z,36.50
2023-05-22T12:30:23.704Z,37.22
2023-05-22T12:31:26.056Z,37.88
2023-05-22T12:32:32.464Z,38.21
2023-05-22T12:33:34.714Z,38.43
2023-05-22T12:34:46.089Z,37.53
2023-05-22T12:35:51.265Z,35.94
2023-05-22T12:36:58.586Z,36.67
2023-05-22T12:38:00.819Z,36.57
2023-05-22T12:39:09.664Z,35.57
2023-05-22T12:40:12.346Z,36.90
2023-05-22T12:41:17.008Z,37.30
2023-05-22T12:42:19.136Z,35.41
2023-05-22T12:43:24.301Z,34.92
2023-05-22T12:44:29.309Z,35.62
2023-05-22T12:45:34.006Z,35.27
2023-05-22T12:46:38.765Z,35.22
2023-05-22T12:47:41.032Z,35.55
2023-05-22T12:48:45.927Z,35.68
2023-05-22T12:49:48.029Z,36.42
2023-05-22T12:50:53.059Z,36.78
2023-05-22T12:51:57.756Z,36.78
2023-05-22T12:53:02.620Z,37.39
2023-05-22T12:54:07.880Z,38.31
2023-05-22T12:55:11.348Z,39.28
2023-05-22T12:56:16.025Z,39.38
2023-05-22T12:57:20.737Z,40.44
2023-05-22T12:58:25.468Z,40.75
2023-05-22T12:59:31.289Z,40.25
2023-05-22T13:00:37.858Z,39.93
2023-05-22T13:01:42.871Z,38.20
2023-05-22T13:02:45.303Z,37.71
2023-05-22T13:03:50.281Z,37.12
2023-05-22T13:04:52.484Z,36.50
2023-05-22T13:05:57.209Z,35.82
2023-05-22T13:07:01.947Z,35.19
2023-05-22T13:08:06.618Z,34.78
2023-05-22T13:09:11.780Z,34.09
2023-05-22T13:10:14.059Z,33.52
2023-05-22T13:11:20.295Z,32.90
2023-05-22T13:12:22.561Z,32.43
2023-05-22T13:13:27.492Z,32.23
2023-05-22T13:14:29.586Z,31.06
2023-05-22T13:15:36.374Z,31.03
2023-05-22T13:16:38.486Z,30.88
2023-05-22T13:17:43.280Z,30.82
2023-05-22T13:18:46.370Z,30.99
2023-05-22T13:19:51.515Z,31.08
2023-05-22T13:20:56.572Z,31.47
2023-05-22T13:21:58.677Z,31.72
2023-05-22T13:23:06.057Z,31.32
2023-05-22T13:24:09.069Z,31.40
2023-05-22T13:25:14.164Z,31.37
2023-05-22T13:26:16.398Z,31.24
2023-05-22T13:27:21.971Z,31.00
2023-05-22T13:28:24.093Z,30.97
2023-05-22T13:29:28.730Z,31.20
2023-05-22T13:30:33.423Z,31.48
2023-05-22T13:31:37.757Z,31.55
2023-05-22T13:32:42.504Z,31.21
2023-05-22T13:33:44.713Z,31.09
2023-05-22T13:34:49.515Z,30.82
2023-05-22T13:35:54.542Z,30.53
2023-05-22T13:36:56.969Z,30.29
2023-05-22T13:38:01.706Z,29.85
2023-05-22T13:39:06.719Z,29.15
2023-05-22T13:40:12.490Z,28.77
2023-05-22T13:41:15.701Z,28.65
2023-05-22T13:42:20.416Z,28.49
2023-05-22T13:43:22.757Z,28.37
2023-05-22T13:44:27.454Z,28.25
2023-05-22T13:45:29.571Z,28.06
2023-05-22T13:46:34.436Z,27.89
2023-05-22T13:47:37.886Z,27.92
2023-05-22T13:48:43.812Z,27.90
2023-05-22T13:49:46.092Z,27.65
2023-05-22T13:50:51.008Z,27.52
2023-05-22T13:51:53.174Z,27.36
2023-05-22T13:52:57.847Z,27.28
2023-05-22T13:54:01.168Z,27.16
2023-05-22T13:55:09.621Z,26.90
2023-05-22T13:56:12.428Z,26.76
2023-05-22T13:57:18.213Z,26.68
2023-05-22T13:58:21.066Z,26.46
2023-05-22T13:59:25.865Z,26.43
2023-05-22T14:00:31.025Z,26.28
2023-05-22T14:01:33.655Z,26.17
2023-05-22T14:02:38.944Z,25.95
2023-05-22T14:03:41.338Z,25.83